Nearby METAR Reports

 

ENCN - Kristiansand/Kje, Norway
Distance from station: N 17km
Updated: 10/04/2020 10:50
Few Clouds
Few Clouds
 Wind van varies
Wind: varies 6 km/h
Temperatuur: 7°C
Dauwpunt: -7°C
Vochtigheid: 37%
Barometer: 1026 hPa
Clouds: Few Clouds
Visibility: 10 km
Cloud details: Few Clouds 5182 m
2020/04/10 08:50 ENCN 100850Z AUTO VRB03KT 9999 FEW170/// 07/M07 Q1026
EKSN - Sindal Airport, Denmark
Distance from station: OZO 145km
Updated: 08/04/2020 14:50
NOT Current
Helder
Helder
 Wind van WZW
Wind: WZW 37 km/h
Temperatuur: 16°C
Dauwpunt: 2°C
Vochtigheid: 39%
Barometer: 1023 hPa
Overzicht: Helder
Visibility: greater than 10 km
2020/04/08 12:50 EKSN 081250Z 25020KT CAVOK 16/02 Q1023
 
EKYT - Alborg, Denmark
Distance from station: ZO 153km
Updated: 10/04/2020 10:50
Few Clouds
Few Clouds
 Wind van W
Wind: W 15 km/h
Temperatuur: 7°C
Wind Chill: 4°C
Dauwpunt: 2°C
Vochtigheid: 71%
Barometer: 1026 hPa
Clouds: Few Clouds
Visibility: 10 km
Cloud details: Few Clouds 5791 m
2020/04/10 08:50 EKYT 100850Z AUTO 26008KT 9999 FEW190/// 07/02 Q1026
ENSN - Skien/Geiterygge, Norway
Distance from station: NO 153km
Updated: 09/11/2015 09:50
NOT Current
Helder
Helder
 Wind van ZZW
Wind: ZZW 19 km/h, Windvlaag: 41 km/h
Temperatuur: 7°C
Wind Chill: 4°C
Dauwpunt: 3°C
Vochtigheid: 76%
Barometer: 1000 hPa
Overzicht: Helder
Visibility: greater than 10 km
2015/11/09 08:50 ENSN 090850Z 20010G22KT 150V240 CAVOK 07/03 Q1000
 
ENZV - Stavanger/Sola(A, Norway
Distance from station: NW 166km
Updated: 10/04/2020 10:50
Gedeeltelijk bewolkt
Gedeeltelijk bewolkt
 Wind van NNW
Wind: NNW 19 km/h
Temperatuur: 6°C
Wind Chill: 3°C
Dauwpunt: -2°C
Vochtigheid: 57%
Barometer: 1028 hPa
Clouds: Gedeeltelijk bewolkt
Visibility: 10 km
Cloud details: Gedeeltelijk bewolkt 1219 m
2020/04/10 08:50 ENZV 100850Z 34010KT 9999 SCT040 06/M02 Q1028 NOSIG
ENNO - Notodden, Norway
Distance from station: NNO 182km
Updated: 06/04/2020 11:50
NOT Current
Nearby showers, Gedeeltelijk bewolkt
Nearby showers, Gedeeltelijk bewolkt
 Wind van W
Wind: W 6 km/h
Temperatuur: 7°C
Dauwpunt: 2°C
Vochtigheid: 71%
Barometer: 1021 hPa
Overzicht: Nearby Showers
Clouds: Gedeeltelijk bewolkt
Visibility: 10 km
Cloud details: Gedeeltelijk bewolkt 853 m
2020/04/06 09:50 ENNO 060950Z 27003KT 9999 VCSH SCT028 07/02 Q1021
 
ENTO - Torp (civ/Nor-Af, Norway
Distance from station: NO 183km
Updated: 10/04/2020 10:50
Helder
Helder
 Wind van N
Wind: N 11 km/h
Temperatuur: 6°C
Wind Chill: 4°C
Dauwpunt: -7°C
Vochtigheid: 39%
Barometer: 1025 hPa
Overzicht: Helder
Visibility: greater than 10 km
2020/04/10 08:50 ENTO 100850Z 01006KT 340V080 CAVOK 06/M07 Q1025 NOSIG
EKKA - Karup (dan-Afb), Denmark
Distance from station: ZZO 209km
Updated: 10/04/2020 10:50
Meestal bewolkt
Meestal bewolkt
 Wind van W
Wind: W 28 km/h
Temperatuur: 8°C
Wind Chill: 4°C
Dauwpunt: 0°C
Vochtigheid: 57%
Barometer: 1027 hPa
Clouds: Meestal bewolkt
Visibility: 10 km
Cloud details: Few Clouds 884 m
Meestal bewolkt 3962 m
2020/04/10 08:50 EKKA 100850Z AUTO 28015KT 9999 FEW029/// BKN130/// 08/M00 Q1027
 
ENHD - Haugesund/Karmoy, Norway
Distance from station: NW 216km
Updated: 10/04/2020 10:50
Gedeeltelijk bewolkt
Gedeeltelijk bewolkt
 Wind van N
Wind: N 9 km/h
Temperatuur: 6°C
Wind Chill: 4°C
Dauwpunt: -2°C
Vochtigheid: 57%
Barometer: 1028 hPa
Clouds: Gedeeltelijk bewolkt
Visibility: 10 km
Cloud details: Gedeeltelijk bewolkt 3658 m
2020/04/10 08:50 ENHD 100850Z AUTO 35005KT 310V020 9999 SCT120/// 06/M02 Q1028
ENRY - Rygge (nor-Afb), Norway
Distance from station: NO 216km
Updated: 10/04/2020 07:50
NOT Current
Meestal bewolkt
Meestal bewolkt
 Wind van varies
Wind: varies 2 km/h
Temperatuur: 0°C
Dauwpunt: -4°C
Vochtigheid: 75%
Barometer: 1026 hPa
Clouds: Meestal bewolkt
Visibility: 10 km
Cloud details: Few Clouds 3658 m
Meestal bewolkt 4572 m
2020/04/10 05:50 ENRY 100550Z AUTO VRB01KT 9999NDV FEW120/// BKN150/// 00/M04 Q1026
 
ESGP - Goteborg/Save (a, Sweden
Distance from station: O 230km
Updated: 02/01/2017 11:20
NOT Current
Helder
Helder
 Wind van calm
Wind: Kalm
Temperatuur: -2°C
Dauwpunt: -4°C
Vochtigheid: 86%
Barometer: 1012 hPa
Clouds: Helder
Visibility: 10 km
2017/01/02 10:20 ESGP 021020Z AUTO 00000KT 9999 NCD M02/M04 Q1012
EKVJ - Stauning Airport, Denmark
Distance from station: Z 233km
Updated: 10/04/2020 10:50
Gedeeltelijk bewolkt
Gedeeltelijk bewolkt
 Wind van NW
Wind: NW 24 km/h
Temperatuur: 8°C
Wind Chill: 4°C
Dauwpunt: 5°C
Vochtigheid: 82%
Barometer: 1027 hPa
Clouds: Gedeeltelijk bewolkt
Visibility: 10 km
Cloud details: Gedeeltelijk bewolkt 762 m
Gedeeltelijk bewolkt 7620 m
2020/04/10 08:50 EKVJ 100850Z 31013KT 9999 SCT025 SCT250 08/05 Q1027
 
ENSO - Stord/Soerstokke, Norway
Distance from station: NW 246km
Updated: 07/04/2020 14:50
NOT Current
Few Clouds
Few Clouds
 Wind van Z
Wind: Z 17 km/h
Temperatuur: 11°C
Dauwpunt: 3°C
Vochtigheid: 58%
Barometer: 1029 hPa
Clouds: Few Clouds
Visibility: 10 km
Cloud details: Few Clouds 914 m
2020/04/07 12:50 ENSO 071250Z 19009KT 140V260 9999 FEW030 11/03 Q1029
EKAH - Tirstrup (civ/Mi, Denmark
Distance from station: ZO 252km
Updated: 10/04/2020 10:50
Helder
Helder
 Wind van W
Wind: W 19 km/h
Temperatuur: 8°C
Wind Chill: 4°C
Dauwpunt: 0°C
Vochtigheid: 57%
Barometer: 1027 hPa
Clouds: Helder
Visibility: 10 km
2020/04/10 08:50 EKAH 100850Z AUTO 28010KT 9999NDV NCD 08/00 Q1027
 
ESGT - Trollhattan (pvt, Sweden
Distance from station: O 255km
Updated: 10/04/2020 10:50
Few Clouds
Few Clouds
 Wind van varies
Wind: varies 4 km/h
Temperatuur: 7°C
Dauwpunt: -2°C
Vochtigheid: 53%
Barometer: 1025 hPa
Clouds: Few Clouds
Visibility: 10 km
Cloud details: Few Clouds 6096 m
2020/04/10 08:50 ESGT 100850Z AUTO VRB02KT 9999 FEW200/// 07/M02 Q1025
ESGG - Goteborg/Landvet, Sweden
Distance from station: O 257km
Updated: 10/04/2020 10:50
Helder
Helder
 Wind van WZW
Wind: WZW 9 km/h
Temperatuur: 8°C
Wind Chill: 6°C
Dauwpunt: -2°C
Vochtigheid: 50%
Barometer: 1024 hPa
Overzicht: Helder
Visibility: greater than 10 km
2020/04/10 08:50 ESGG 100850Z 24005KT 180V260 CAVOK 08/M02 Q1024
 
EKBI - Billund Airport, Denmark
Distance from station: ZZO 269km
Updated: 10/04/2020 10:50
Helder
Helder
 Wind van W
Wind: W 20 km/h
Temperatuur: 7°C
Wind Chill: 4°C
Dauwpunt: 1°C
Vochtigheid: 66%
Barometer: 1027 hPa
Clouds: Helder
Visibility: 10 km
2020/04/10 08:50 EKBI 100850Z AUTO 28011KT 9999 NCD 07/01 Q1027
EKHN - Horns Rev B Heli, Denmark
Distance from station: Z 274km
Updated: 09/08/2016 14:20
NOT Current
Few Clouds
Few Clouds
 Wind van WNW
Wind: WNW 50 km/h, Windvlaag: 72 km/h
Temperatuur: 14°C
Dauwpunt: 10°C
Vochtigheid: 77%
Barometer: 1018 hPa
Clouds: Few Clouds
Visibility: 10 km
Cloud details: Few Clouds 1158 m
Few Clouds 2438 m
2016/08/09 12:20 EKHN 091220Z AUTO 29027G39KT 270V340 9999NDV FEW038/// FEW080/// 14/10 Q1018
 
ESIB - Satenas (swe-Afb, Sweden
Distance from station: O 277km
Updated: 10/04/2020 10:50
Helder
Helder
 Wind van varies
Wind: varies 4 km/h
Temperatuur: 8°C
Dauwpunt: -1°C
Vochtigheid: 53%
Barometer: 1024 hPa
Clouds: Helder
Visibility: 10 km
2020/04/10 08:50 ESIB 100850Z AUTO VRB02KT 9999 NCD 08/M01 Q1024
EKHR - Horns Rev B Heli, Denmark
Distance from station: Z 282km
Updated: 04/10/2016 06:20
NOT Current
Helder
Helder
 Wind van O
Wind: O 4 km/h
Temperatuur: 11°C
Dauwpunt: -49°C
Vochtigheid: 0%
Barometer: 1038 hPa
Clouds: Helder
Visibility: 10 km
2016/10/04 04:20 EKHR 040420Z AUTO 08002KT 9999NDV NCD 11/M49 Q1038